createdAt,value
2023-04-12T04:01:55.016Z,2.40
2023-04-12T04:04:23.188Z,2.55
2023-04-12T04:06:50.547Z,4.28
2023-04-12T04:09:17.576Z,2.92
2023-04-12T04:11:44.371Z,2.28
2023-04-12T04:14:11.066Z,2.28
2023-04-12T04:16:37.802Z,1.98
2023-04-12T04:19:04.625Z,2.70
2023-04-12T04:21:32.138Z,2.55
2023-04-12T04:24:02.457Z,2.45
2023-04-12T04:26:35.354Z,1.83
2023-04-12T04:29:02.143Z,2.17
2023-04-12T04:31:34.555Z,1.90
2023-04-12T04:34:03.518Z,2.45
2023-04-12T04:36:30.261Z,2.13
2023-04-12T04:38:59.890Z,3.58
2023-04-12T04:41:26.744Z,2.30
2023-04-12T04:43:54.296Z,3.38
2023-04-12T04:46:22.129Z,2.13
2023-04-12T04:48:51.672Z,1.67
2023-04-12T04:51:18.328Z,2.75
2023-04-12T04:53:45.220Z,1.80
2023-04-12T04:56:11.875Z,2.70
2023-04-12T04:58:38.837Z,1.73
2023-04-12T05:01:05.805Z,1.77
2023-04-12T05:03:34.131Z,2.33
2023-04-12T05:06:03.454Z,2.17
2023-04-12T05:08:30.718Z,2.47
2023-04-12T05:10:57.638Z,2.55
2023-04-12T05:13:24.386Z,3.00
2023-04-12T05:15:51.283Z,1.95
2023-04-12T05:18:18.244Z,2.28
2023-04-12T05:20:45.879Z,1.95
2023-04-12T05:23:12.657Z,2.45
2023-04-12T05:25:44.718Z,2.13
2023-04-12T05:28:14.272Z,1.83
2023-04-12T05:30:41.216Z,2.38
2023-04-12T05:33:07.947Z,2.17
2023-04-12T05:35:34.899Z,2.28
2023-04-12T05:38:01.701Z,1.30
2023-04-12T05:40:28.458Z,2.72
2023-04-12T05:42:55.165Z,1.73
2023-04-12T05:45:21.924Z,1.98
2023-04-12T05:47:48.640Z,1.42
2023-04-12T05:50:15.688Z,1.85
2023-04-12T05:52:42.596Z,2.38
2023-04-12T05:55:09.545Z,2.00
2023-04-12T05:57:36.404Z,1.88
2023-04-12T06:00:07.756Z,1.42
2023-04-12T06:02:34.713Z,1.83
2023-04-12T06:05:03.571Z,2.10
2023-04-12T06:07:30.826Z,1.45
2023-04-12T06:09:57.505Z,2.42
2023-04-12T06:12:24.358Z,2.17
2023-04-12T06:14:51.082Z,1.88
2023-04-12T06:17:17.743Z,1.98
2023-04-12T06:19:44.651Z,2.30
2023-04-12T06:22:11.308Z,2.22
2023-04-12T06:24:37.987Z,2.63
2023-04-12T06:27:04.651Z,2.42
2023-04-12T06:29:31.318Z,2.00
2023-04-12T06:31:58.131Z,2.53
2023-04-12T06:34:24.809Z,1.52
2023-04-12T06:36:51.732Z,3.08
2023-04-12T06:39:18.369Z,1.90
2023-04-12T06:41:47.353Z,1.67
2023-04-12T06:44:14.046Z,1.95
2023-04-12T06:46:40.862Z,2.50
2023-04-12T06:49:07.893Z,2.85
2023-04-12T06:51:35.515Z,2.28
2023-04-12T06:54:02.193Z,4.05
2023-04-12T06:56:28.903Z,1.40
2023-04-12T06:58:56.762Z,1.55
2023-04-12T07:01:23.887Z,3.00
2023-04-12T07:03:50.987Z,2.00
2023-04-12T07:06:25.076Z,1.48
2023-04-12T07:08:52.726Z,1.98
2023-04-12T07:11:21.733Z,1.75
2023-04-12T07:13:49.199Z,2.53
2023-04-12T07:16:16.569Z,2.75
2023-04-12T07:18:43.307Z,2.63
2023-04-12T07:21:10.062Z,2.83
2023-04-12T07:23:36.817Z,2.22
2023-04-12T07:26:03.596Z,1.75
2023-04-12T07:28:30.340Z,2.40
2023-04-12T07:30:57.023Z,2.25
2023-04-12T07:33:26.251Z,1.02
2023-04-12T07:35:53.335Z,2.13
2023-04-12T07:38:20.328Z,1.92
2023-04-12T07:40:49.930Z,2.25
2023-04-12T07:43:17.178Z,2.72
2023-04-12T07:45:43.963Z,2.08
2023-04-12T07:48:12.002Z,2.40
2023-04-12T07:50:39.903Z,2.40
2023-04-12T07:53:21.766Z,2.17
2023-04-12T07:55:49.193Z,1.67
2023-04-12T07:58:17.329Z,1.63
2023-04-12T08:00:44.908Z,2.03
2023-04-12T08:03:16.770Z,1.63
2023-04-12T08:05:44.535Z,1.17
2023-04-12T08:08:12.179Z,1.27
2023-04-12T08:10:39.829Z,1.92
2023-04-12T08:13:07.444Z,2.55
2023-04-12T08:15:34.439Z,3.17
2023-04-12T08:18:02.543Z,2.33
2023-04-12T08:20:29.763Z,2.75
2023-04-12T08:22:56.642Z,2.20
2023-04-12T08:25:23.706Z,1.52
2023-04-12T08:27:51.852Z,1.65
2023-04-12T08:30:19.460Z,1.40
2023-04-12T08:32:46.353Z,1.73
2023-04-12T08:35:14.532Z,1.48
2023-04-12T08:37:41.880Z,1.40
2023-04-12T08:40:09.456Z,1.85
2023-04-12T08:42:37.623Z,1.63
2023-04-12T08:45:08.985Z,0.88
2023-04-12T08:47:39.701Z,1.23
2023-04-12T08:50:10.984Z,3.03
2023-04-12T08:52:38.166Z,2.05
2023-04-12T08:55:08.967Z,1.70
2023-04-12T08:57:36.821Z,1.67
2023-04-12T09:00:07.291Z,0.88
2023-04-12T09:02:37.502Z,1.67
2023-04-12T09:05:06.199Z,1.65
2023-04-12T09:07:33.749Z,1.08
2023-04-12T09:10:00.570Z,0.98
2023-04-12T09:12:27.994Z,0.93
2023-04-12T09:15:13.521Z,0.82
2023-04-12T09:17:42.434Z,1.10
2023-04-12T09:20:18.347Z,0.63
2023-04-12T09:22:46.576Z,0.70
2023-04-12T09:25:14.975Z,1.63
2023-04-12T09:27:53.657Z,0.65
2023-04-12T09:30:21.321Z,0.68
2023-04-12T09:32:53.906Z,1.40
2023-04-12T09:35:35.158Z,0.50
2023-04-12T09:38:12.310Z,0.77
2023-04-12T09:40:41.922Z,1.05
2023-04-12T09:43:10.553Z,0.57
2023-04-12T09:45:40.876Z,1.00
2023-04-12T09:48:08.071Z,0.75
2023-04-12T09:50:35.243Z,0.45
2023-04-12T09:53:03.583Z,0.80
2023-04-12T09:55:32.618Z,1.02
2023-04-12T09:58:03.550Z,1.23
2023-04-12T10:00:34.113Z,0.95
2023-04-12T10:03:02.100Z,1.05
2023-04-12T10:05:29.618Z,0.50
2023-04-12T10:07:58.078Z,0.45
2023-04-12T10:10:24.836Z,0.82
2023-04-12T10:12:51.852Z,0.77
2023-04-12T10:15:21.059Z,0.95
2023-04-12T10:17:55.306Z,0.98
2023-04-12T10:20:24.768Z,1.00
2023-04-12T10:22:54.008Z,0.50
2023-04-12T10:25:27.073Z,1.08
2023-04-12T10:27:54.092Z,1.30
2023-04-12T10:30:31.214Z,1.42
2023-04-12T10:33:10.156Z,0.90
2023-04-12T10:36:05.568Z,0.60
2023-04-12T10:38:48.204Z,0.95
2023-04-12T10:41:17.411Z,0.80
2023-04-12T10:43:48.053Z,1.88
2023-04-12T10:46:46.162Z,1.42
2023-04-12T10:49:17.086Z,1.05
2023-04-12T10:52:07.320Z,1.27
2023-04-12T10:54:37.331Z,1.10
2023-04-12T10:57:05.119Z,0.88
2023-04-12T10:59:54.314Z,1.30
2023-04-12T11:02:21.985Z,1.00
2023-04-12T11:05:08.978Z,1.20
2023-04-12T11:07:41.918Z,1.35
2023-04-12T11:10:17.060Z,0.82
2023-04-12T11:12:55.349Z,1.63
2023-04-12T11:15:26.845Z,0.80
2023-04-12T11:17:55.734Z,0.95
2023-04-12T11:20:22.718Z,2.35
2023-04-12T11:22:53.785Z,1.17
2023-04-12T11:25:21.252Z,1.15
2023-04-12T11:27:53.813Z,1.67
2023-04-12T11:30:21.386Z,0.98
2023-04-12T11:32:48.450Z,1.90
2023-04-12T11:35:27.475Z,1.00
2023-04-12T11:37:58.491Z,1.10
2023-04-12T11:40:26.223Z,1.10
2023-04-12T11:42:53.345Z,1.50
2023-04-12T11:45:21.619Z,1.13
2023-04-12T11:47:48.921Z,1.70
2023-04-12T11:50:30.080Z,1.05
2023-04-12T11:53:10.770Z,1.40
2023-04-12T11:55:37.558Z,1.40
2023-04-12T11:58:05.207Z,1.48
2023-04-12T12:00:32.254Z,1.30
2023-04-12T12:03:07.652Z,1.70
2023-04-12T12:05:38.356Z,1.50
2023-04-12T12:08:07.578Z,1.83
2023-04-12T12:10:44.355Z,2.25
2023-04-12T12:13:18.893Z,1.33
2023-04-12T12:15:46.433Z,2.00
2023-04-12T12:18:13.316Z,2.33
2023-04-12T12:20:48.907Z,2.13
2023-04-12T12:23:32.277Z,1.50
2023-04-12T12:26:16.772Z,1.92
2023-04-12T12:28:53.489Z,2.47
2023-04-12T12:31:25.359Z,1.30
2023-04-12T12:34:01.009Z,2.20
2023-04-12T12:36:36.393Z,1.58
2023-04-12T12:39:10.956Z,2.05
2023-04-12T12:41:39.030Z,2.47
2023-04-12T12:44:07.167Z,3.90
2023-04-12T12:49:05.039Z,2.80
2023-04-12T12:51:32.031Z,3.67
2023-04-12T12:53:59.104Z,4.05
2023-04-12T12:56:25.933Z,2.92
2023-04-12T12:58:52.659Z,1.92
2023-04-12T13:01:19.307Z,1.48
2023-04-12T13:03:46.118Z,2.38
2023-04-12T13:06:12.900Z,1.92
2023-04-12T13:08:39.587Z,1.75
2023-04-12T13:11:06.817Z,3.67
2023-04-12T13:13:33.526Z,3.30
2023-04-12T13:16:00.252Z,2.78
2023-04-12T13:18:26.940Z,3.35
2023-04-12T13:20:53.649Z,2.60
2023-04-12T13:23:20.780Z,2.47
2023-04-12T13:25:47.474Z,2.58
2023-04-12T13:28:16.915Z,1.80
2023-04-12T13:30:43.779Z,2.58
2023-04-12T13:33:10.729Z,3.05
2023-04-12T13:35:38.266Z,3.63
2023-04-12T13:38:05.209Z,4.00
2023-04-12T13:40:32.395Z,1.98
2023-04-12T13:42:59.420Z,2.75
2023-04-12T13:45:27.409Z,1.55
2023-04-12T13:47:54.164Z,1.80
2023-04-12T13:50:21.353Z,1.95
2023-04-12T13:52:48.722Z,2.42
2023-04-12T13:55:15.701Z,1.30
2023-04-12T13:57:42.553Z,2.33
2023-04-12T14:00:12.490Z,1.65
2023-04-12T14:02:39.551Z,2.28
2023-04-12T14:05:07.121Z,2.47
2023-04-12T14:07:34.087Z,1.40
2023-04-12T14:10:01.008Z,1.05
2023-04-12T14:12:27.702Z,1.92
2023-04-12T14:14:54.727Z,1.25
2023-04-12T14:17:21.737Z,1.10
2023-04-12T14:19:48.620Z,1.15
2023-04-12T14:22:15.389Z,2.22
2023-04-12T14:24:42.057Z,2.30
2023-04-12T14:27:09.050Z,3.35
2023-04-12T14:29:37.262Z,2.85
2023-04-12T14:32:04.054Z,3.78
2023-04-12T14:34:31.186Z,1.55
2023-04-12T14:36:58.123Z,2.65
2023-04-12T14:39:26.046Z,1.70
2023-04-12T14:41:53.334Z,2.08
2023-04-12T14:44:20.780Z,1.55
2023-04-12T14:46:48.151Z,1.55
2023-04-12T14:49:14.980Z,2.60
2023-04-12T14:51:41.738Z,1.80
2023-04-12T14:54:08.509Z,1.55
2023-04-12T14:56:42.097Z,1.60
2023-04-12T14:59:13.503Z,0.68
2023-04-12T15:01:41.554Z,1.73
2023-04-12T15:04:09.042Z,0.90
2023-04-12T15:06:42.214Z,1.35
2023-04-12T15:09:09.914Z,1.02
2023-04-12T15:11:38.148Z,1.15
2023-04-12T15:14:06.000Z,1.35
2023-04-12T15:16:34.894Z,1.52
2023-04-12T15:19:07.595Z,1.30
2023-04-12T15:21:37.981Z,2.15
2023-04-12T15:24:08.173Z,2.15
2023-04-12T15:26:38.104Z,1.05
2023-04-12T15:29:05.024Z,2.22
2023-04-12T15:31:32.872Z,2.20
2023-04-12T15:34:00.330Z,2.15
2023-04-12T15:36:34.285Z,1.23
2023-04-12T15:39:02.073Z,1.77
2023-04-12T15:41:34.716Z,1.27
2023-04-12T15:46:28.292Z,0.80
2023-04-12T15:48:55.057Z,0.38
2023-04-12T15:51:22.352Z,1.15
2023-04-12T15:53:49.245Z,0.20
2023-04-12T15:56:19.908Z,0.30
2023-04-12T15:58:46.777Z,0.20
2023-04-12T16:01:13.486Z,0.45
2023-04-12T16:03:40.849Z,0.35
2023-04-12T16:06:08.197Z,0.60
2023-04-12T16:08:35.133Z,0.17
2023-04-12T16:11:02.760Z,0.50
2023-04-12T16:13:30.402Z,0.73
2023-04-12T16:15:57.409Z,0.40
2023-04-12T16:18:24.639Z,0.90
2023-04-12T16:20:53.657Z,0.30
2023-04-12T16:23:23.099Z,0.50
2023-04-12T16:25:53.773Z,0.22
2023-04-12T16:28:23.312Z,0.40
2023-04-12T16:30:51.044Z,0.50
2023-04-12T16:33:19.558Z,0.80
2023-04-12T16:35:46.962Z,0.50
2023-04-12T16:38:15.846Z,0.60
2023-04-12T16:40:45.186Z,0.75
2023-04-12T16:43:12.325Z,0.45
2023-04-12T16:45:40.969Z,1.30
2023-04-12T16:48:08.650Z,0.90
2023-04-12T16:50:35.910Z,0.60
2023-04-12T16:53:03.818Z,1.10
2023-04-12T16:55:31.080Z,1.27
2023-04-12T16:57:58.279Z,0.90
2023-04-12T17:00:29.535Z,1.13
2023-04-12T17:02:57.234Z,0.73
2023-04-12T17:05:25.151Z,0.85
2023-04-12T17:07:54.517Z,1.33
2023-04-12T17:10:23.416Z,0.82
2023-04-12T17:12:53.175Z,0.77
2023-04-12T17:15:23.508Z,1.90
2023-04-12T17:17:52.555Z,1.60
2023-04-12T17:20:22.868Z,1.10
2023-04-12T17:22:51.103Z,0.65
2023-04-12T17:25:22.381Z,0.90
2023-04-12T17:27:53.044Z,1.80
2023-04-12T17:30:20.675Z,0.98
2023-04-12T17:32:49.205Z,0.90
2023-04-12T17:35:18.161Z,0.80
2023-04-12T17:37:45.627Z,1.05
2023-04-12T17:40:13.195Z,0.80
2023-04-12T17:42:42.846Z,1.23
2023-04-12T17:45:14.754Z,1.25
2023-04-12T17:47:42.805Z,0.75
2023-04-12T17:50:11.901Z,1.55
2023-04-12T17:52:39.771Z,0.90
2023-04-12T17:55:09.756Z,1.08
2023-04-12T17:57:37.598Z,0.88
2023-04-12T18:00:08.161Z,1.35
2023-04-12T18:02:35.078Z,0.82
2023-04-12T18:05:02.172Z,0.98
2023-04-12T18:07:30.578Z,1.50
2023-04-12T18:09:57.561Z,1.13
2023-04-12T18:12:24.374Z,1.27
2023-04-12T18:14:51.118Z,1.13
2023-04-12T18:17:17.917Z,1.27
2023-04-12T18:19:45.322Z,1.92
2023-04-12T18:22:12.746Z,1.05
2023-04-12T18:24:39.525Z,0.75
2023-04-12T18:27:07.180Z,1.38
2023-04-12T18:29:34.373Z,0.88
2023-04-12T18:32:01.572Z,1.83
2023-04-12T18:34:28.518Z,1.75
2023-04-12T18:36:59.474Z,1.52
2023-04-12T18:39:26.556Z,0.60
2023-04-12T18:41:53.494Z,0.90
2023-04-12T18:44:20.471Z,1.17
2023-04-12T18:46:47.356Z,0.82
2023-04-12T18:49:14.574Z,1.15
2023-04-12T18:51:43.003Z,2.45
2023-04-12T18:54:13.054Z,1.00
2023-04-12T18:56:42.233Z,1.45
2023-04-12T18:59:11.992Z,1.15
2023-04-12T19:01:38.928Z,2.38
2023-04-12T19:04:05.890Z,1.35
2023-04-12T19:06:33.146Z,1.05
2023-04-12T19:08:59.869Z,1.20
2023-04-12T19:11:27.957Z,1.10
2023-04-12T19:13:56.189Z,1.10
2023-04-12T19:16:24.711Z,1.70
2023-04-12T19:18:52.234Z,1.35
2023-04-12T19:21:19.064Z,1.00
2023-04-12T19:23:46.102Z,1.20
2023-04-12T19:26:13.215Z,0.85
2023-04-12T19:28:40.495Z,1.23
2023-04-12T19:31:10.550Z,0.65
2023-04-12T19:33:40.442Z,1.05
2023-04-12T19:36:07.670Z,1.05
2023-04-12T19:38:34.494Z,0.47
2023-04-12T19:41:01.669Z,0.60
2023-04-12T19:43:28.596Z,0.88
2023-04-12T19:45:57.589Z,0.50
2023-04-12T19:48:24.885Z,1.27
2023-04-12T19:50:51.678Z,0.40
2023-04-12T19:53:18.712Z,0.68
2023-04-12T19:55:45.943Z,0.47
2023-04-12T19:58:13.869Z,0.30
2023-04-12T20:00:41.474Z,0.45
2023-04-12T20:03:09.481Z,1.50
2023-04-12T20:05:37.582Z,0.75
2023-04-12T20:08:04.556Z,0.88
2023-04-12T20:10:31.708Z,0.55
2023-04-12T20:12:59.647Z,0.73
2023-04-12T20:15:26.555Z,0.60
2023-04-12T20:17:53.822Z,0.50
2023-04-12T20:20:21.015Z,0.30
2023-04-12T20:22:53.168Z,0.82
2023-04-12T20:25:23.801Z,0.88
2023-04-12T20:27:52.543Z,0.57
2023-04-12T20:30:21.610Z,0.82
2023-04-12T20:32:54.561Z,0.50
2023-04-12T20:35:22.751Z,1.15
2023-04-12T20:37:51.292Z,0.45
2023-04-12T20:40:19.943Z,0.90
2023-04-12T20:42:48.108Z,0.50
2023-04-12T20:45:17.943Z,0.65
2023-04-12T20:47:45.295Z,0.50
2023-04-12T20:50:12.565Z,0.40
2023-04-12T20:52:40.485Z,0.40
2023-04-12T20:55:07.614Z,0.40
2023-04-12T20:57:35.166Z,0.38
2023-04-12T21:00:12.290Z,0.43
2023-04-12T21:02:39.712Z,0.47
2023-04-12T21:05:06.870Z,0.85
2023-04-12T21:07:34.114Z,0.20
2023-04-12T21:10:02.236Z,0.32
2023-04-12T21:12:32.152Z,0.45
2023-04-12T21:15:00.736Z,0.13
2023-04-12T21:17:29.948Z,0.20
2023-04-12T21:19:58.257Z,0.17
2023-04-12T21:22:28.638Z,0.25
2023-04-12T21:24:55.643Z,0.25
2023-04-12T21:27:22.348Z,0.57
2023-04-12T21:29:50.230Z,0.55
2023-04-12T21:32:17.786Z,0.20
2023-04-12T21:34:45.921Z,0.30
2023-04-12T21:37:13.222Z,0.30
2023-04-12T21:39:40.116Z,0.20
2023-04-12T21:42:07.436Z,0.20
2023-04-12T21:44:34.446Z,0.32
2023-04-12T21:47:01.199Z,0.32
2023-04-12T21:49:30.100Z,0.22
2023-04-12T21:51:59.118Z,0.38
2023-04-12T21:54:28.892Z,0.50
2023-04-12T21:56:56.112Z,0.10
2023-04-12T21:59:25.102Z,0.30
2023-04-12T22:01:52.325Z,0.20
2023-04-12T22:04:19.186Z,0.10
2023-04-12T22:06:46.030Z,0.30
2023-04-12T22:09:12.939Z,0.30
2023-04-12T22:11:40.079Z,0.30
2023-04-12T22:14:06.786Z,0.32
2023-04-12T22:16:33.688Z,0.20
2023-04-12T22:19:03.612Z,0.40
2023-04-12T22:21:30.823Z,0.30
2023-04-12T22:23:58.258Z,0.57
2023-04-12T22:26:25.295Z,0.50
2023-04-12T22:28:52.051Z,0.40
2023-04-12T22:31:22.870Z,0.25
2023-04-12T22:33:49.769Z,0.32
2023-04-12T22:36:17.744Z,0.25
2023-04-12T22:38:47.498Z,0.20
2023-04-12T22:41:17.607Z,0.50
2023-04-12T22:43:47.519Z,0.20
2023-04-12T22:46:18.845Z,0.20
2023-04-12T22:48:47.795Z,0.15
2023-04-12T22:51:15.205Z,0.20
2023-04-12T22:53:43.382Z,0.40
2023-04-12T22:56:11.330Z,0.13
2023-04-12T22:58:42.976Z,0.10
2023-04-12T23:01:10.893Z,0.10
2023-04-12T23:03:44.816Z,0.17
2023-04-12T23:06:12.766Z,0.40
2023-04-12T23:08:39.525Z,0.57
2023-04-12T23:11:06.769Z,0.82
2023-04-12T23:13:35.087Z,0.20
2023-04-12T23:16:03.514Z,0.35
2023-04-12T23:18:30.557Z,0.20
2023-04-12T23:20:57.236Z,0.40
2023-04-12T23:23:24.678Z,0.20
2023-04-12T23:25:52.320Z,0.10
2023-04-12T23:28:21.666Z,0.17
2023-04-12T23:30:49.864Z,0.43
2023-04-12T23:33:18.857Z,0.30
2023-04-12T23:35:47.873Z,0.30
2023-04-12T23:38:15.837Z,0.47
2023-04-12T23:40:43.534Z,0.15
2023-04-12T23:43:10.945Z,0.20
2023-04-12T23:45:38.458Z,1.35
2023-04-12T23:48:10.344Z,0.20
2023-04-12T23:50:37.104Z,0.30
2023-04-12T23:53:04.881Z,0.32
2023-04-12T23:55:31.835Z,0.40
2023-04-12T23:57:58.541Z,0.20
